sensor_id;sensor_type;location;lat;lon;timestamp;P1;durP1;ratioP1;P2;durP2;ratioP2
64959;SDS011;51487;52.266;10.542;2024-02-28T00:00:38;9.10;;;8.10;;
64959;SDS011;51487;52.266;10.542;2024-02-28T00:03:03;10.82;;;8.77;;
64959;SDS011;51487;52.266;10.542;2024-02-28T00:05:29;10.70;;;8.93;;
64959;SDS011;51487;52.266;10.542;2024-02-28T00:07:55;10.75;;;8.88;;
64959;SDS011;51487;52.266;10.542;2024-02-28T00:10:21;12.55;;;9.70;;
64959;SDS011;51487;52.266;10.542;2024-02-28T00:12:46;10.82;;;8.68;;
64959;SDS011;51487;52.266;10.542;2024-02-28T00:15:12;11.32;;;10.13;;
64959;SDS011;51487;52.266;10.542;2024-02-28T00:17:38;11.88;;;9.82;;
64959;SDS011;51487;52.266;10.542;2024-02-28T00:20:08;10.35;;;9.25;;
64959;SDS011;51487;52.266;10.542;2024-02-28T00:22:35;11.02;;;9.73;;
64959;SDS011;51487;52.266;10.542;2024-02-28T00:25:04;10.93;;;9.57;;
64959;SDS011;51487;52.266;10.542;2024-02-28T00:27:31;13.82;;;9.88;;
64959;SDS011;51487;52.266;10.542;2024-02-28T00:29:58;12.07;;;9.70;;
64959;SDS011;51487;52.266;10.542;2024-02-28T00:32:24;11.70;;;10.02;;
64959;SDS011;51487;52.266;10.542;2024-02-28T00:34:49;12.15;;;10.07;;
64959;SDS011;51487;52.266;10.542;2024-02-28T00:37:15;10.73;;;9.30;;
64959;SDS011;51487;52.266;10.542;2024-02-28T00:39:40;10.32;;;9.23;;
64959;SDS011;51487;52.266;10.542;2024-02-28T00:42:06;10.93;;;9.30;;
64959;SDS011;51487;52.266;10.542;2024-02-28T00:44:32;14.23;;;9.38;;
64959;SDS011;51487;52.266;10.542;2024-02-28T00:46:57;12.18;;;9.57;;
64959;SDS011;51487;52.266;10.542;2024-02-28T00:49:22;12.90;;;9.07;;
64959;SDS011;51487;52.266;10.542;2024-02-28T00:51:48;11.02;;;9.68;;
64959;SDS011;51487;52.266;10.542;2024-02-28T00:54:13;11.60;;;9.25;;
64959;SDS011;51487;52.266;10.542;2024-02-28T00:56:39;9.35;;;8.32;;
64959;SDS011;51487;52.266;10.542;2024-02-28T00:59:04;12.38;;;9.30;;
64959;SDS011;51487;52.266;10.542;2024-02-28T01:01:31;10.73;;;8.73;;
64959;SDS011;51487;52.266;10.542;2024-02-28T01:03:57;10.75;;;9.48;;
64959;SDS011;51487;52.266;10.542;2024-02-28T01:06:22;11.02;;;8.70;;
64959;SDS011;51487;52.266;10.542;2024-02-28T01:08:48;10.88;;;9.38;;
64959;SDS011;51487;52.266;10.542;2024-02-28T01:11:13;9.93;;;8.30;;
64959;SDS011;51487;52.266;10.542;2024-02-28T01:13:39;10.95;;;9.35;;
64959;SDS011;51487;52.266;10.542;2024-02-28T01:16:05;10.65;;;8.93;;
64959;SDS011;51487;52.266;10.542;2024-02-28T01:18:30;12.88;;;9.00;;
64959;SDS011;51487;52.266;10.542;2024-02-28T01:20:57;9.90;;;8.85;;
64959;SDS011;51487;52.266;10.542;2024-02-28T01:23:23;10.45;;;8.63;;
64959;SDS011;51487;52.266;10.542;2024-02-28T01:25:48;12.80;;;9.30;;
64959;SDS011;51487;52.266;10.542;2024-02-28T01:28:14;11.88;;;9.57;;
64959;SDS011;51487;52.266;10.542;2024-02-28T01:30:39;10.02;;;8.63;;
64959;SDS011;51487;52.266;10.542;2024-02-28T01:33:05;10.32;;;8.88;;
64959;SDS011;51487;52.266;10.542;2024-02-28T01:35:30;10.40;;;8.77;;
64959;SDS011;51487;52.266;10.542;2024-02-28T01:37:56;10.38;;;9.18;;
64959;SDS011;51487;52.266;10.542;2024-02-28T01:40:21;12.98;;;9.43;;
64959;SDS011;51487;52.266;10.542;2024-02-28T01:42:47;12.02;;;9.23;;
64959;SDS011;51487;52.266;10.542;2024-02-28T01:45:13;11.40;;;10.07;;
64959;SDS011;51487;52.266;10.542;2024-02-28T01:47:40;13.45;;;10.48;;
64959;SDS011;51487;52.266;10.542;2024-02-28T01:50:07;11.30;;;9.45;;
64959;SDS011;51487;52.266;10.542;2024-02-28T01:52:36;11.52;;;10.32;;
64959;SDS011;51487;52.266;10.542;2024-02-28T01:55:03;11.18;;;9.98;;
64959;SDS011;51487;52.266;10.542;2024-02-28T01:57:31;11.60;;;10.40;;
64959;SDS011;51487;52.266;10.542;2024-02-28T01:59:58;13.70;;;10.88;;
64959;SDS011;51487;52.266;10.542;2024-02-28T02:02:24;12.88;;;11.25;;
64959;SDS011;51487;52.266;10.542;2024-02-28T02:04:49;13.68;;;10.68;;
64959;SDS011;51487;52.266;10.542;2024-02-28T02:07:18;13.07;;;11.55;;
64959;SDS011;51487;52.266;10.542;2024-02-28T02:09:44;13.88;;;11.23;;
64959;SDS011;51487;52.266;10.542;2024-02-28T02:12:11;14.30;;;11.60;;
64959;SDS011;51487;52.266;10.542;2024-02-28T02:14:37;14.88;;;11.88;;
64959;SDS011;51487;52.266;10.542;2024-02-28T02:17:02;14.48;;;11.57;;
64959;SDS011;51487;52.266;10.542;2024-02-28T02:19:28;13.50;;;12.02;;
64959;SDS011;51487;52.266;10.542;2024-02-28T02:21:54;14.02;;;12.45;;
64959;SDS011;51487;52.266;10.542;2024-02-28T02:24:23;14.70;;;12.80;;
64959;SDS011;51487;52.266;10.542;2024-02-28T02:26:49;15.13;;;12.68;;
64959;SDS011;51487;52.266;10.542;2024-02-28T02:29:17;15.23;;;12.70;;
64959;SDS011;51487;52.266;10.542;2024-02-28T02:31:43;15.50;;;13.13;;
64959;SDS011;51487;52.266;10.542;2024-02-28T02:34:08;16.75;;;13.07;;
64959;SDS011;51487;52.266;10.542;2024-02-28T02:36:34;16.33;;;11.77;;
64959;SDS011;51487;52.266;10.542;2024-02-28T02:38:59;13.98;;;11.82;;
64959;SDS011;51487;52.266;10.542;2024-02-28T02:41:25;14.15;;;12.35;;
64959;SDS011;51487;52.266;10.542;2024-02-28T02:43:50;14.48;;;12.93;;
64959;SDS011;51487;52.266;10.542;2024-02-28T02:46:16;15.70;;;12.70;;
64959;SDS011;51487;52.266;10.542;2024-02-28T02:48:41;16.38;;;13.25;;
64959;SDS011;51487;52.266;10.542;2024-02-28T02:51:07;13.90;;;12.40;;
64959;SDS011;51487;52.266;10.542;2024-02-28T02:53:32;15.35;;;13.73;;
64959;SDS011;51487;52.266;10.542;2024-02-28T02:55:58;18.35;;;13.23;;
64959;SDS011;51487;52.266;10.542;2024-02-28T02:58:23;16.70;;;13.30;;
64959;SDS011;51487;52.266;10.542;2024-02-28T03:00:49;16.58;;;13.63;;
64959;SDS011;51487;52.266;10.542;2024-02-28T03:03:14;16.23;;;13.82;;
64959;SDS011;51487;52.266;10.542;2024-02-28T03:05:40;17.20;;;13.65;;
64959;SDS011;51487;52.266;10.542;2024-02-28T03:08:05;17.23;;;13.77;;
64959;SDS011;51487;52.266;10.542;2024-02-28T03:10:31;16.98;;;14.25;;
64959;SDS011;51487;52.266;10.542;2024-02-28T03:12:57;18.08;;;14.85;;
64959;SDS011;51487;52.266;10.542;2024-02-28T03:15:22;16.40;;;14.35;;
64959;SDS011;51487;52.266;10.542;2024-02-28T03:17:48;19.05;;;15.38;;
64959;SDS011;51487;52.266;10.542;2024-02-28T03:20:13;18.88;;;14.88;;
64959;SDS011;51487;52.266;10.542;2024-02-28T03:22:39;18.75;;;15.20;;
64959;SDS011;51487;52.266;10.542;2024-02-28T03:25:05;20.63;;;14.65;;
64959;SDS011;51487;52.266;10.542;2024-02-28T03:27:32;18.70;;;15.32;;
64959;SDS011;51487;52.266;10.542;2024-02-28T03:29:57;19.40;;;15.50;;
64959;SDS011;51487;52.266;10.542;2024-02-28T03:32:23;18.42;;;15.80;;
64959;SDS011;51487;52.266;10.542;2024-02-28T03:34:48;16.70;;;14.73;;
64959;SDS011;51487;52.266;10.542;2024-02-28T03:37:14;17.85;;;15.35;;
64959;SDS011;51487;52.266;10.542;2024-02-28T03:39:40;19.13;;;15.38;;
64959;SDS011;51487;52.266;10.542;2024-02-28T03:42:05;19.13;;;15.73;;
64959;SDS011;51487;52.266;10.542;2024-02-28T03:44:31;23.38;;;16.33;;
64959;SDS011;51487;52.266;10.542;2024-02-28T03:46:57;18.77;;;15.68;;
64959;SDS011;51487;52.266;10.542;2024-02-28T03:49:22;18.08;;;14.85;;
64959;SDS011;51487;52.266;10.542;2024-02-28T03:51:49;19.30;;;15.90;;
64959;SDS011;51487;52.266;10.542;2024-02-28T03:54:14;17.67;;;15.13;;
64959;SDS011;51487;52.266;10.542;2024-02-28T03:56:40;18.80;;;16.00;;
64959;SDS011;51487;52.266;10.542;2024-02-28T03:59:05;19.27;;;15.77;;
64959;SDS011;51487;52.266;10.542;2024-02-28T04:01:31;18.08;;;15.48;;
64959;SDS011;51487;52.266;10.542;2024-02-28T04:03:56;20.52;;;16.38;;
64959;SDS011;51487;52.266;10.542;2024-02-28T04:06:22;23.88;;;17.63;;
64959;SDS011;51487;52.266;10.542;2024-02-28T04:08:48;20.50;;;16.40;;
64959;SDS011;51487;52.266;10.542;2024-02-28T04:11:13;19.98;;;16.55;;
64959;SDS011;51487;52.266;10.542;2024-02-28T04:13:39;20.33;;;16.48;;
64959;SDS011;51487;52.266;10.542;2024-02-28T04:16:06;18.27;;;16.33;;
64959;SDS011;51487;52.266;10.542;2024-02-28T04:18:33;17.88;;;15.52;;
64959;SDS011;51487;52.266;10.542;2024-02-28T04:20:59;20.35;;;17.05;;
64959;SDS011;51487;52.266;10.542;2024-02-28T04:23:24;19.02;;;16.80;;
64959;SDS011;51487;52.266;10.542;2024-02-28T04:25:50;19.55;;;16.48;;
64959;SDS011;51487;52.266;10.542;2024-02-28T04:28:15;21.77;;;17.55;;
64959;SDS011;51487;52.266;10.542;2024-02-28T04:30:41;22.70;;;17.38;;
64959;SDS011;51487;52.266;10.542;2024-02-28T04:33:06;17.40;;;14.75;;
64959;SDS011;51487;52.266;10.542;2024-02-28T04:35:32;18.33;;;14.88;;
64959;SDS011;51487;52.266;10.542;2024-02-28T04:37:57;18.40;;;15.43;;
64959;SDS011;51487;52.266;10.542;2024-02-28T04:40:23;17.88;;;14.98;;
64959;SDS011;51487;52.266;10.542;2024-02-28T04:42:48;19.20;;;14.45;;
64959;SDS011;51487;52.266;10.542;2024-02-28T04:45:14;17.00;;;14.38;;
64959;SDS011;51487;52.266;10.542;2024-02-28T04:47:39;18.33;;;14.50;;
64959;SDS011;51487;52.266;10.542;2024-02-28T04:50:05;19.05;;;13.48;;
64959;SDS011;51487;52.266;10.542;2024-02-28T04:52:31;14.60;;;12.18;;
64959;SDS011;51487;52.266;10.542;2024-02-28T04:54:58;16.27;;;13.32;;
64959;SDS011;51487;52.266;10.542;2024-02-28T04:57:23;13.70;;;11.50;;
64959;SDS011;51487;52.266;10.542;2024-02-28T04:59:49;14.68;;;12.30;;
64959;SDS011;51487;52.266;10.542;2024-02-28T05:02:14;14.43;;;11.93;;
64959;SDS011;51487;52.266;10.542;2024-02-28T05:04:41;16.65;;;12.73;;
64959;SDS011;51487;52.266;10.542;2024-02-28T05:07:06;17.27;;;14.00;;
64959;SDS011;51487;52.266;10.542;2024-02-28T05:09:32;15.23;;;11.98;;
64959;SDS011;51487;52.266;10.542;2024-02-28T05:11:58;15.80;;;11.85;;
64959;SDS011;51487;52.266;10.542;2024-02-28T05:14:24;18.00;;;12.73;;
64959;SDS011;51487;52.266;10.542;2024-02-28T05:16:50;14.50;;;11.75;;
64959;SDS011;51487;52.266;10.542;2024-02-28T05:19:15;13.95;;;11.70;;
64959;SDS011;51487;52.266;10.542;2024-02-28T05:21:44;15.40;;;11.43;;
64959;SDS011;51487;52.266;10.542;2024-02-28T05:24:11;15.70;;;12.02;;
64959;SDS011;51487;52.266;10.542;2024-02-28T05:26:37;15.00;;;11.85;;
64959;SDS011;51487;52.266;10.542;2024-02-28T05:29:04;19.25;;;12.57;;
64959;SDS011;51487;52.266;10.542;2024-02-28T05:31:30;16.08;;;12.60;;
64959;SDS011;51487;52.266;10.542;2024-02-28T05:33:57;18.65;;;12.40;;
64959;SDS011;51487;52.266;10.542;2024-02-28T05:36:24;16.48;;;12.40;;
64959;SDS011;51487;52.266;10.542;2024-02-28T05:38:52;16.17;;;12.70;;
64959;SDS011;51487;52.266;10.542;2024-02-28T05:41:20;14.00;;;11.57;;
64959;SDS011;51487;52.266;10.542;2024-02-28T05:43:46;16.67;;;12.93;;
64959;SDS011;51487;52.266;10.542;2024-02-28T05:46:13;15.95;;;12.20;;
64959;SDS011;51487;52.266;10.542;2024-02-28T05:48:43;16.70;;;12.57;;
64959;SDS011;51487;52.266;10.542;2024-02-28T05:51:10;16.75;;;13.05;;
64959;SDS011;51487;52.266;10.542;2024-02-28T05:53:38;15.32;;;12.85;;
64959;SDS011;51487;52.266;10.542;2024-02-28T05:56:05;16.15;;;12.80;;
64959;SDS011;51487;52.266;10.542;2024-02-28T05:58:38;16.13;;;12.50;;
64959;SDS011;51487;52.266;10.542;2024-02-28T06:01:04;16.30;;;13.02;;
64959;SDS011;51487;52.266;10.542;2024-02-28T06:03:30;15.95;;;12.45;;
64959;SDS011;51487;52.266;10.542;2024-02-28T06:05:55;18.30;;;13.95;;
64959;SDS011;51487;52.266;10.542;2024-02-28T06:08:22;16.55;;;13.93;;
64959;SDS011;51487;52.266;10.542;2024-02-28T06:10:48;16.80;;;13.50;;
64959;SDS011;51487;52.266;10.542;2024-02-28T06:13:14;15.85;;;12.68;;
64959;SDS011;51487;52.266;10.542;2024-02-28T06:15:39;15.10;;;12.98;;
64959;SDS011;51487;52.266;10.542;2024-02-28T06:18:05;19.02;;;13.35;;
64959;SDS011;51487;52.266;10.542;2024-02-28T06:20:30;17.92;;;13.55;;
64959;SDS011;51487;52.266;10.542;2024-02-28T06:22:56;18.92;;;13.98;;
64959;SDS011;51487;52.266;10.542;2024-02-28T06:25:22;21.10;;;13.88;;
64959;SDS011;51487;52.266;10.542;2024-02-28T06:27:48;18.38;;;13.20;;
64959;SDS011;51487;52.266;10.542;2024-02-28T06:30:15;17.88;;;13.65;;
64959;SDS011;51487;52.266;10.542;2024-02-28T06:32:42;16.75;;;12.20;;
64959;SDS011;51487;52.266;10.542;2024-02-28T06:35:07;15.95;;;13.05;;
64959;SDS011;51487;52.266;10.542;2024-02-28T06:37:34;17.50;;;13.68;;
64959;SDS011;51487;52.266;10.542;2024-02-28T06:40:00;16.27;;;12.88;;
64959;SDS011;51487;52.266;10.542;2024-02-28T06:42:29;16.48;;;13.23;;
64959;SDS011;51487;52.266;10.542;2024-02-28T06:44:54;18.95;;;13.88;;
64959;SDS011;51487;52.266;10.542;2024-02-28T06:47:20;16.50;;;13.13;;
64959;SDS011;51487;52.266;10.542;2024-02-28T06:49:46;19.13;;;14.75;;
64959;SDS011;51487;52.266;10.542;2024-02-28T06:52:12;20.67;;;15.90;;
64959;SDS011;51487;52.266;10.542;2024-02-28T06:54:37;18.40;;;14.18;;
64959;SDS011;51487;52.266;10.542;2024-02-28T06:57:03;18.17;;;14.60;;
64959;SDS011;51487;52.266;10.542;2024-02-28T06:59:28;22.80;;;16.88;;
64959;SDS011;51487;52.266;10.542;2024-02-28T07:01:54;23.13;;;16.60;;
64959;SDS011;51487;52.266;10.542;2024-02-28T07:04:20;22.50;;;16.35;;
64959;SDS011;51487;52.266;10.542;2024-02-28T07:06:45;24.52;;;18.45;;
64959;SDS011;51487;52.266;10.542;2024-02-28T07:09:11;23.08;;;18.25;;
64959;SDS011;51487;52.266;10.542;2024-02-28T07:11:37;24.77;;;17.20;;
64959;SDS011;51487;52.266;10.542;2024-02-28T07:14:03;25.77;;;18.50;;
64959;SDS011;51487;52.266;10.542;2024-02-28T07:16:30;22.00;;;16.83;;
64959;SDS011;51487;52.266;10.542;2024-02-28T07:18:58;24.08;;;17.30;;
64959;SDS011;51487;52.266;10.542;2024-02-28T07:21:27;25.38;;;18.48;;
64959;SDS011;51487;52.266;10.542;2024-02-28T07:23:53;24.05;;;17.60;;
64959;SDS011;51487;52.266;10.542;2024-02-28T07:26:19;25.13;;;18.63;;
64959;SDS011;51487;52.266;10.542;2024-02-28T07:28:44;23.73;;;17.27;;
64959;SDS011;51487;52.266;10.542;2024-02-28T07:31:18;23.63;;;17.17;;
64959;SDS011;51487;52.266;10.542;2024-02-28T07:33:44;23.58;;;17.20;;
64959;SDS011;51487;52.266;10.542;2024-02-28T07:36:11;24.15;;;17.95;;
64959;SDS011;51487;52.266;10.542;2024-02-28T07:38:37;26.83;;;17.35;;
64959;SDS011;51487;52.266;10.542;2024-02-28T07:41:02;24.85;;;18.25;;
64959;SDS011;51487;52.266;10.542;2024-02-28T07:43:28;26.38;;;18.73;;
64959;SDS011;51487;52.266;10.542;2024-02-28T07:45:57;24.83;;;18.20;;
64959;SDS011;51487;52.266;10.542;2024-02-28T07:48:24;24.70;;;18.48;;
64959;SDS011;51487;52.266;10.542;2024-02-28T07:50:50;24.60;;;18.23;;
64959;SDS011;51487;52.266;10.542;2024-02-28T07:53:16;23.73;;;17.95;;
64959;SDS011;51487;52.266;10.542;2024-02-28T07:55:42;26.67;;;17.65;;
64959;SDS011;51487;52.266;10.542;2024-02-28T07:58:08;26.00;;;18.48;;
64959;SDS011;51487;52.266;10.542;2024-02-28T08:00:34;24.58;;;18.42;;
64959;SDS011;51487;52.266;10.542;2024-02-28T08:03:00;24.17;;;18.02;;
64959;SDS011;51487;52.266;10.542;2024-02-28T08:05:26;30.08;;;20.98;;
64959;SDS011;51487;52.266;10.542;2024-02-28T08:07:52;22.80;;;18.15;;
64959;SDS011;51487;52.266;10.542;2024-02-28T08:10:17;25.60;;;17.48;;
64959;SDS011;51487;52.266;10.542;2024-02-28T08:12:43;26.48;;;18.33;;
64959;SDS011;51487;52.266;10.542;2024-02-28T08:15:09;23.77;;;17.70;;
64959;SDS011;51487;52.266;10.542;2024-02-28T08:17:35;23.40;;;17.80;;
64959;SDS011;51487;52.266;10.542;2024-02-28T08:20:02;23.27;;;17.45;;
64959;SDS011;51487;52.266;10.542;2024-02-28T08:22:30;23.63;;;17.58;;
64959;SDS011;51487;52.266;10.542;2024-02-28T08:24:56;24.05;;;17.52;;
64959;SDS011;51487;52.266;10.542;2024-02-28T08:27:22;21.52;;;16.63;;
64959;SDS011;51487;52.266;10.542;2024-02-28T08:29:49;23.17;;;17.35;;
64959;SDS011;51487;52.266;10.542;2024-02-28T08:32:17;20.25;;;16.08;;
64959;SDS011;51487;52.266;10.542;2024-02-28T08:34:47;21.60;;;16.70;;
64959;SDS011;51487;52.266;10.542;2024-02-28T08:37:13;21.75;;;17.13;;
64959;SDS011;51487;52.266;10.542;2024-02-28T08:39:38;24.35;;;17.70;;
64959;SDS011;51487;52.266;10.542;2024-02-28T08:42:05;23.00;;;16.65;;
64959;SDS011;51487;52.266;10.542;2024-02-28T08:44:31;25.58;;;17.02;;
64959;SDS011;51487;52.266;10.542;2024-02-28T08:46:56;26.30;;;18.05;;
64959;SDS011;51487;52.266;10.542;2024-02-28T08:49:22;23.02;;;16.88;;
64959;SDS011;51487;52.266;10.542;2024-02-28T08:51:47;23.77;;;17.48;;
64959;SDS011;51487;52.266;10.542;2024-02-28T08:54:13;22.17;;;16.27;;
64959;SDS011;51487;52.266;10.542;2024-02-28T08:56:38;25.33;;;17.38;;
64959;SDS011;51487;52.266;10.542;2024-02-28T08:59:04;24.35;;;17.30;;
64959;SDS011;51487;52.266;10.542;2024-02-28T09:01:29;23.33;;;17.02;;
64959;SDS011;51487;52.266;10.542;2024-02-28T09:03:55;23.20;;;17.27;;
64959;SDS011;51487;52.266;10.542;2024-02-28T09:06:21;23.27;;;16.33;;
64959;SDS011;51487;52.266;10.542;2024-02-28T09:08:46;24.15;;;17.63;;
64959;SDS011;51487;52.266;10.542;2024-02-28T09:11:11;22.92;;;16.52;;
64959;SDS011;51487;52.266;10.542;2024-02-28T09:13:37;23.38;;;16.08;;
64959;SDS011;51487;52.266;10.542;2024-02-28T09:16:03;23.83;;;16.30;;
64959;SDS011;51487;52.266;10.542;2024-02-28T09:18:29;23.60;;;16.48;;
64959;SDS011;51487;52.266;10.542;2024-02-28T09:20:54;23.48;;;16.67;;
64959;SDS011;51487;52.266;10.542;2024-02-28T09:23:20;21.63;;;16.33;;
64959;SDS011;51487;52.266;10.542;2024-02-28T09:25:46;23.38;;;16.23;;
64959;SDS011;51487;52.266;10.542;2024-02-28T09:28:11;22.15;;;16.45;;
64959;SDS011;51487;52.266;10.542;2024-02-28T09:30:38;22.63;;;16.02;;
64959;SDS011;51487;52.266;10.542;2024-02-28T09:33:04;22.58;;;15.90;;
64959;SDS011;51487;52.266;10.542;2024-02-28T09:35:31;21.25;;;15.48;;
64959;SDS011;51487;52.266;10.542;2024-02-28T09:37:56;23.98;;;16.02;;
64959;SDS011;51487;52.266;10.542;2024-02-28T09:40:22;22.50;;;15.75;;
64959;SDS011;51487;52.266;10.542;2024-02-28T09:42:50;21.38;;;15.48;;
64959;SDS011;51487;52.266;10.542;2024-02-28T09:45:20;22.05;;;15.50;;
64959;SDS011;51487;52.266;10.542;2024-02-28T09:47:49;20.60;;;15.05;;
64959;SDS011;51487;52.266;10.542;2024-02-28T09:50:15;22.67;;;16.38;;
64959;SDS011;51487;52.266;10.542;2024-02-28T09:52:43;23.73;;;16.23;;
64959;SDS011;51487;52.266;10.542;2024-02-28T09:55:09;22.33;;;16.17;;
64959;SDS011;51487;52.266;10.542;2024-02-28T09:57:35;21.23;;;15.82;;
64959;SDS011;51487;52.266;10.542;2024-02-28T10:00:02;21.08;;;15.75;;
64959;SDS011;51487;52.266;10.542;2024-02-28T10:02:29;21.85;;;15.80;;
64959;SDS011;51487;52.266;10.542;2024-02-28T10:04:56;21.98;;;16.60;;
64959;SDS011;51487;52.266;10.542;2024-02-28T10:07:25;22.10;;;15.73;;
64959;SDS011;51487;52.266;10.542;2024-02-28T10:09:52;22.38;;;16.08;;
64959;SDS011;51487;52.266;10.542;2024-02-28T10:12:17;23.02;;;16.30;;
64959;SDS011;51487;52.266;10.542;2024-02-28T10:14:44;22.90;;;16.60;;
64959;SDS011;51487;52.266;10.542;2024-02-28T10:17:09;23.20;;;16.60;;
64959;SDS011;51487;52.266;10.542;2024-02-28T10:19:35;23.30;;;16.20;;
64959;SDS011;51487;52.266;10.542;2024-02-28T10:22:01;23.55;;;17.40;;
64959;SDS011;51487;52.266;10.542;2024-02-28T10:24:26;24.13;;;16.88;;
64959;SDS011;51487;52.266;10.542;2024-02-28T10:26:52;24.27;;;17.70;;
64959;SDS011;51487;52.266;10.542;2024-02-28T10:29:20;23.77;;;18.05;;
64959;SDS011;51487;52.266;10.542;2024-02-28T10:31:48;25.45;;;17.83;;
64959;SDS011;51487;52.266;10.542;2024-02-28T10:34:15;26.23;;;17.80;;
64959;SDS011;51487;52.266;10.542;2024-02-28T10:36:42;26.42;;;17.88;;
64959;SDS011;51487;52.266;10.542;2024-02-28T10:39:10;24.40;;;18.10;;
64959;SDS011;51487;52.266;10.542;2024-02-28T10:41:40;25.52;;;18.63;;
64959;SDS011;51487;52.266;10.542;2024-02-28T10:44:08;25.08;;;18.30;;
64959;SDS011;51487;52.266;10.542;2024-02-28T10:46:35;26.05;;;18.98;;
64959;SDS011;51487;52.266;10.542;2024-02-28T10:49:03;23.35;;;18.73;;
64959;SDS011;51487;52.266;10.542;2024-02-28T10:51:30;26.77;;;17.77;;
64959;SDS011;51487;52.266;10.542;2024-02-28T10:56:41;27.73;;;19.02;;
64959;SDS011;51487;52.266;10.542;2024-02-28T10:59:09;24.08;;;18.15;;
64959;SDS011;51487;52.266;10.542;2024-02-28T11:01:40;26.08;;;18.60;;
64959;SDS011;51487;52.266;10.542;2024-02-28T11:04:08;25.88;;;18.40;;
64959;SDS011;51487;52.266;10.542;2024-02-28T11:06:46;25.40;;;18.42;;
64959;SDS011;51487;52.266;10.542;2024-02-28T11:09:18;24.00;;;17.73;;
64959;SDS011;51487;52.266;10.542;2024-02-28T11:14:17;28.05;;;18.73;;
64959;SDS011;51487;52.266;10.542;2024-02-28T11:16:47;27.33;;;18.50;;
64959;SDS011;51487;52.266;10.542;2024-02-28T11:19:24;27.00;;;18.95;;
64959;SDS011;51487;52.266;10.542;2024-02-28T11:21:56;29.80;;;19.60;;
64959;SDS011;51487;52.266;10.542;2024-02-28T11:24:30;27.75;;;19.17;;
64959;SDS011;51487;52.266;10.542;2024-02-28T11:26:57;28.60;;;19.08;;
64959;SDS011;51487;52.266;10.542;2024-02-28T11:29:26;27.50;;;19.45;;
64959;SDS011;51487;52.266;10.542;2024-02-28T11:31:56;25.80;;;18.50;;
64959;SDS011;51487;52.266;10.542;2024-02-28T11:34:22;27.02;;;20.02;;
64959;SDS011;51487;52.266;10.542;2024-02-28T11:36:48;28.08;;;19.85;;
64959;SDS011;51487;52.266;10.542;2024-02-28T11:39:14;29.35;;;20.80;;
64959;SDS011;51487;52.266;10.542;2024-02-28T11:41:40;31.33;;;19.65;;
64959;SDS011;51487;52.266;10.542;2024-02-28T11:44:06;29.17;;;20.55;;
64959;SDS011;51487;52.266;10.542;2024-02-28T11:46:32;28.95;;;19.58;;
64959;SDS011;51487;52.266;10.542;2024-02-28T11:48:58;29.67;;;20.40;;
64959;SDS011;51487;52.266;10.542;2024-02-28T11:51:23;31.27;;;20.35;;
64959;SDS011;51487;52.266;10.542;2024-02-28T11:53:49;30.77;;;19.80;;
64959;SDS011;51487;52.266;10.542;2024-02-28T11:56:15;30.83;;;21.60;;
64959;SDS011;51487;52.266;10.542;2024-02-28T11:58:51;30.55;;;20.42;;
64959;SDS011;51487;52.266;10.542;2024-02-28T12:01:19;29.80;;;20.92;;
64959;SDS011;51487;52.266;10.542;2024-02-28T12:04:03;32.22;;;20.05;;
64959;SDS011;51487;52.266;10.542;2024-02-28T12:06:30;28.38;;;20.60;;
64959;SDS011;51487;52.266;10.542;2024-02-28T12:08:57;29.17;;;20.00;;
64959;SDS011;51487;52.266;10.542;2024-02-28T12:11:24;30.02;;;20.60;;
64959;SDS011;51487;52.266;10.542;2024-02-28T12:13:53;28.92;;;20.40;;
64959;SDS011;51487;52.266;10.542;2024-02-28T12:16:24;26.75;;;18.58;;
64959;SDS011;51487;52.266;10.542;2024-02-28T12:18:51;28.50;;;21.10;;
64959;SDS011;51487;52.266;10.542;2024-02-28T12:21:17;28.65;;;20.27;;
64959;SDS011;51487;52.266;10.542;2024-02-28T12:23:44;31.67;;;20.73;;
64959;SDS011;51487;52.266;10.542;2024-02-28T12:26:10;28.73;;;20.45;;
64959;SDS011;51487;52.266;10.542;2024-02-28T12:28:36;27.15;;;19.88;;
64959;SDS011;51487;52.266;10.542;2024-02-28T12:31:01;26.25;;;19.55;;
64959;SDS011;51487;52.266;10.542;2024-02-28T12:33:27;29.83;;;20.85;;
64959;SDS011;51487;52.266;10.542;2024-02-28T12:35:52;28.13;;;20.13;;
64959;SDS011;51487;52.266;10.542;2024-02-28T12:38:18;29.23;;;20.23;;
64959;SDS011;51487;52.266;10.542;2024-02-28T12:40:44;26.75;;;19.55;;
64959;SDS011;51487;52.266;10.542;2024-02-28T12:43:10;29.70;;;20.58;;
64959;SDS011;51487;52.266;10.542;2024-02-28T12:45:36;28.83;;;19.70;;
64959;SDS011;51487;52.266;10.542;2024-02-28T12:48:01;28.48;;;20.48;;
64959;SDS011;51487;52.266;10.542;2024-02-28T12:50:27;27.98;;;20.58;;
64959;SDS011;51487;52.266;10.542;2024-02-28T12:52:52;27.23;;;19.98;;
64959;SDS011;51487;52.266;10.542;2024-02-28T12:55:19;31.50;;;20.92;;
64959;SDS011;51487;52.266;10.542;2024-02-28T12:57:46;28.70;;;19.05;;
64959;SDS011;51487;52.266;10.542;2024-02-28T13:00:12;29.73;;;20.02;;
64959;SDS011;51487;52.266;10.542;2024-02-28T13:02:38;31.85;;;20.55;;
64959;SDS011;51487;52.266;10.542;2024-02-28T13:05:04;30.15;;;21.00;;
64959;SDS011;51487;52.266;10.542;2024-02-28T13:07:30;29.40;;;20.30;;
64959;SDS011;51487;52.266;10.542;2024-02-28T13:09:55;31.38;;;20.60;;
64959;SDS011;51487;52.266;10.542;2024-02-28T13:12:21;29.77;;;20.98;;
64959;SDS011;51487;52.266;10.542;2024-02-28T13:14:47;28.48;;;20.17;;
64959;SDS011;51487;52.266;10.542;2024-02-28T13:17:13;26.25;;;19.00;;
64959;SDS011;51487;52.266;10.542;2024-02-28T13:19:40;28.02;;;19.83;;
64959;SDS011;51487;52.266;10.542;2024-02-28T13:22:05;29.80;;;20.65;;
64959;SDS011;51487;52.266;10.542;2024-02-28T13:24:31;28.25;;;19.48;;
64959;SDS011;51487;52.266;10.542;2024-02-28T13:26:56;27.00;;;20.48;;
64959;SDS011;51487;52.266;10.542;2024-02-28T13:29:22;23.73;;;17.70;;
64959;SDS011;51487;52.266;10.542;2024-02-28T13:31:47;26.02;;;18.55;;
64959;SDS011;51487;52.266;10.542;2024-02-28T13:34:13;26.95;;;19.35;;
64959;SDS011;51487;52.266;10.542;2024-02-28T13:36:38;32.50;;;20.02;;
64959;SDS011;51487;52.266;10.542;2024-02-28T13:39:07;29.20;;;20.50;;
64959;SDS011;51487;52.266;10.542;2024-02-28T13:41:36;30.15;;;20.08;;
64959;SDS011;51487;52.266;10.542;2024-02-28T13:44:02;27.48;;;20.08;;
64959;SDS011;51487;52.266;10.542;2024-02-28T13:46:28;28.95;;;19.42;;
64959;SDS011;51487;52.266;10.542;2024-02-28T13:48:53;28.23;;;19.00;;
64959;SDS011;51487;52.266;10.542;2024-02-28T13:51:19;29.02;;;19.15;;
64959;SDS011;51487;52.266;10.542;2024-02-28T13:53:44;28.23;;;19.67;;
64959;SDS011;51487;52.266;10.542;2024-02-28T13:56:10;28.92;;;20.40;;
64959;SDS011;51487;52.266;10.542;2024-02-28T13:58:35;30.52;;;19.15;;
64959;SDS011;51487;52.266;10.542;2024-02-28T14:01:01;28.77;;;19.30;;
64959;SDS011;51487;52.266;10.542;2024-02-28T14:03:26;28.38;;;19.08;;
64959;SDS011;51487;52.266;10.542;2024-02-28T14:05:53;27.35;;;18.77;;
64959;SDS011;51487;52.266;10.542;2024-02-28T14:08:18;29.95;;;18.40;;
64959;SDS011;51487;52.266;10.542;2024-02-28T14:10:44;25.15;;;18.75;;